Time;durP1;ratioP1;P1;durP2;ratioP2;P2;SDS_P1;SDS_P2;PMS_P1;PMS_P2;Temp;Humidity;BMP_temperature;BMP_pressure;BME280_temperature;BME280_humidity;BME280_pressure;Samples;Min_cycle;Max_cycle;Signal;HPM_P1;HPM_P2
2022/04/20 00:00:48;;;;;;;;;;;;;;;;;;5053504;28;1245;-68
2022/04/20 00:03:13;;;;;;;;;;;;;;;;;;5053486;28;1251;-68
2022/04/20 00:05:38;;;;;;;;;;;;;;;;;;5055321;28;1334;-68
2022/04/20 00:08:04;;;;;;;;;;;;;;;;;;5055133;28;1359;-67
2022/04/20 00:10:29;;;;;;;;;;;;;;;;;;5053913;28;1886;-68
2022/04/20 00:12:55;;;;;;;;;;;;;;;;;;5051667;28;1352;-68
2022/04/20 00:15:20;;;;;;;;;;;;;;;;;;5050987;28;1279;-67
2022/04/20 00:17:45;;;;;;;;;;;;;;;;;;5053263;28;1160;-66
2022/04/20 00:20:11;;;;;;;;;;;;;;;;;;5055450;28;1355;-67
2022/04/20 00:22:36;;;;;;;;;;;;;;;;;;5053279;28;1215;-66
2022/04/20 00:25:01;;;;;;;;;;;;;;;;;;5042245;28;800;-66
2022/04/20 00:27:26;;;;;;;;;;;;;;;;;;5055563;28;1375;-67
2022/04/20 00:29:52;;;;;;;;;;;;;;;;;;5056931;28;1898;-67
2022/04/20 00:32:17;;;;;;;;;;;;;;;;;;5057907;28;1251;-67
2022/04/20 00:34:42;;;;;;;;;;;;;;;;;;5062204;28;1414;-67
2022/04/20 00:37:07;;;;;;;;;;;;;;;;;;5060847;28;1367;-67
2022/04/20 00:39:33;;;;;;;;;;;;;;;;;;5053742;28;1211;-67
2022/04/20 00:41:58;;;;;;;;;;;;;;;;;;5061565;28;1192;-67
2022/04/20 00:44:23;;;;;;;;;;;;;;;;;;5059541;28;1402;-67
2022/04/20 00:46:49;;;;;;;;;;;;;;;;;;5053718;28;1084;-66
2022/04/20 00:49:16;;;;;;;;;;;;;;;;;;5061673;28;1401;-66
2022/04/20 00:51:51;;;;;;;;;;;;;;;;;;5061457;28;1899;-66
2022/04/20 00:54:17;;;;;;;;;;;;;;;;;;5061769;28;844;-66
2022/04/20 00:56:42;;;;;;;;;;;;;;;;;;5060488;28;1348;-67
2022/04/20 00:59:07;;;;;;;;;;;;;;;;;;5053051;28;1509;-67
2022/04/20 01:01:32;;;;;;;;;;;;;;;;;;5055451;28;1386;-67
2022/04/20 01:03:57;;;;;;;;;;;;;;;;;;5057528;28;1407;-66
2022/04/20 01:06:23;;;;;;;;;;;;;;;;;;5061301;28;978;-67
2022/04/20 01:08:48;;;;;;;;;;;;;;;;;;5061141;28;797;-67
2022/04/20 01:11:13;;;;;;;;;;;;;;;;;;5059804;28;1929;-67
2022/04/20 01:13:39;;;;;;;;;;;;;;;;;;5057860;28;1417;-67
2022/04/20 01:16:04;;;;;;;;;;;;;;;;;;5055344;28;1088;-67
2022/04/20 01:18:29;;;;;;;;;;;;;;;;;;5061239;28;1413;-64
2022/04/20 01:20:55;;;;;;;;;;;;;;;;;;5061359;28;855;-64
2022/04/20 01:23:20;;;;;;;;;;;;;;;;;;5060748;28;1200;-64
2022/04/20 01:25:45;;;;;;;;;;;;;;;;;;5061277;28;986;-64
2022/04/20 01:28:10;;;;;;;;;;;;;;;;;;5059575;28;1410;-65
2022/04/20 01:30:36;;;;;;;;;;;;;;;;;;5052877;28;1959;-65
2022/04/20 01:33:02;;;;;;;;;;;;;;;;;;5060834;28;1278;-65
2022/04/20 01:35:27;;;;;;;;;;;;;;;;;;5060480;28;1359;-66
2022/04/20 01:37:52;;;;;;;;;;;;;;;;;;5056279;28;1387;-66
2022/04/20 01:40:18;;;;;;;;;;;;;;;;;;5057381;28;1210;-66
2022/04/20 01:42:43;;;;;;;;;;;;;;;;;;5059878;28;1347;-65
2022/04/20 01:45:08;;;;;;;;;;;;;;;;;;5052938;28;1316;-66
2022/04/20 01:47:33;;;;;;;;;;;;;;;;;;5060155;28;1490;-67
2022/04/20 01:49:59;;;;;;;;;;;;;;;;;;5059663;28;1939;-66
2022/04/20 01:52:24;;;;;;;;;;;;;;;;;;5058894;28;1363;-66
2022/04/20 01:54:49;;;;;;;;;;;;;;;;;;5039877;28;903;-67
2022/04/20 01:57:15;;;;;;;;;;;;;;;;;;5040946;28;851;-67
2022/04/20 01:59:40;;;;;;;;;;;;;;;;;;5039636;28;1499;-66
2022/04/20 02:04:49;;;;;;;;;;;;;;;;;;5056084;28;803;-66
2022/04/20 02:07:14;;;;;;;;;;;;;;;;;;5040906;28;835;-66
2022/04/20 02:09:39;;;;;;;;;;;;;;;;;;5040851;28;894;-67
2022/04/20 02:12:05;;;;;;;;;;;;;;;;;;5040213;28;2025;-67
2022/04/20 02:14:30;;;;;;;;;;;;;;;;;;5040841;28;899;-66
2022/04/20 02:16:55;;;;;;;;;;;;;;;;;;5052381;28;1429;-66
2022/04/20 02:19:21;;;;;;;;;;;;;;;;;;5052172;28;1268;-66
2022/04/20 02:21:46;;;;;;;;;;;;;;;;;;5040342;28;1208;-65
2022/04/20 02:24:13;;;;;;;;;;;;;;;;;;5051105;28;1386;-66
2022/04/20 02:26:38;;;;;;;;;;;;;;;;;;5059324;28;1119;-65
2022/04/20 02:29:04;;;;;;;;;;;;;;;;;;5060628;28;812;-66
2022/04/20 02:31:41;;;;;;;;;;;;;;;;;;5060059;28;1901;-65
2022/04/20 02:34:27;;;;;;;;;;;;;;;;;;5061666;28;1084;-64
2022/04/20 02:37:22;;;;;;;;;;;;;;;;;;5058395;28;1359;-65
2022/04/20 02:39:47;;;;;;;;;;;;;;;;;;5039060;28;1390;-65
2022/04/20 02:42:13;;;;;;;;;;;;;;;;;;5056364;28;1235;-66
2022/04/20 02:44:39;;;;;;;;;;;;;;;;;;5062663;28;1219;-66
2022/04/20 02:47:04;;;;;;;;;;;;;;;;;;5063677;28;1418;-66
2022/04/20 02:49:30;;;;;;;;;;;;;;;;;;5063734;28;938;-66
2022/04/20 02:51:55;;;;;;;;;;;;;;;;;;5057543;28;1894;-66
2022/04/20 02:54:20;;;;;;;;;;;;;;;;;;5060227;28;1203;-66
2022/04/20 02:56:45;;;;;;;;;;;;;;;;;;5063700;28;835;-66
2022/04/20 02:59:10;;;;;;;;;;;;;;;;;;5063639;28;966;-66
2022/04/20 03:01:36;;;;;;;;;;;;;;;;;;5063307;28;1366;-67
2022/04/20 03:04:01;;;;;;;;;;;;;;;;;;5062397;28;1414;-67
2022/04/20 03:06:27;;;;;;;;;;;;;;;;;;5055109;28;1120;-67
2022/04/20 03:08:52;;;;;;;;;;;;;;;;;;5063519;28;938;-67
2022/04/20 03:11:17;;;;;;;;;;;;;;;;;;5063370;28;1949;-67
2022/04/20 03:13:43;;;;;;;;;;;;;;;;;;5062626;28;1418;-67
2022/04/20 03:16:08;;;;;;;;;;;;;;;;;;5063246;28;946;-66
2022/04/20 03:18:33;;;;;;;;;;;;;;;;;;5062291;28;1328;-67
2022/04/20 03:20:59;;;;;;;;;;;;;;;;;;5053468;28;1429;-69
2022/04/20 03:23:24;;;;;;;;;;;;;;;;;;5061395;28;1366;-67
2022/04/20 03:25:50;;;;;;;;;;;;;;;;;;5055546;28;1140;-67
2022/04/20 03:28:15;;;;;;;;;;;;;;;;;;5063072;28;1437;-67
2022/04/20 03:30:41;;;;;;;;;;;;;;;;;;5063064;28;1961;-67
2022/04/20 03:33:08;;;;;;;;;;;;;;;;;;5062063;28;1327;-67
2022/04/20 03:35:34;;;;;;;;;;;;;;;;;;5054582;28;1092;-67
2022/04/20 03:37:59;;;;;;;;;;;;;;;;;;5062949;28;899;-67
2022/04/20 03:40:24;;;;;;;;;;;;;;;;;;5061372;28;1363;-67
2022/04/20 03:42:49;;;;;;;;;;;;;;;;;;5053354;28;1290;-66
2022/04/20 03:45:14;;;;;;;;;;;;;;;;;;5062864;28;1052;-67
2022/04/20 03:47:40;;;;;;;;;;;;;;;;;;5062886;28;914;-67
2022/04/20 03:50:05;;;;;;;;;;;;;;;;;;5062453;28;1984;-67
2022/04/20 03:52:30;;;;;;;;;;;;;;;;;;5062528;28;1208;-66
2022/04/20 03:54:55;;;;;;;;;;;;;;;;;;5061734;28;1370;-67
2022/04/20 03:57:21;;;;;;;;;;;;;;;;;;5056515;28;1394;-67
2022/04/20 03:59:47;;;;;;;;;;;;;;;;;;5050853;28;1061;-67
2022/04/20 04:02:12;;;;;;;;;;;;;;;;;;5042322;28;1180;-67
2022/04/20 04:04:37;;;;;;;;;;;;;;;;;;5042436;28;844;-67
2022/04/20 04:07:03;;;;;;;;;;;;;;;;;;5042481;28;1053;-67
2022/04/20 04:09:29;;;;;;;;;;;;;;;;;;5049655;28;1371;-67
2022/04/20 04:11:54;;;;;;;;;;;;;;;;;;5053688;28;1971;-66
2022/04/20 04:14:19;;;;;;;;;;;;;;;;;;5042389;28;903;-67
2022/04/20 04:16:44;;;;;;;;;;;;;;;;;;5042433;28;800;-66
2022/04/20 04:19:11;;;;;;;;;;;;;;;;;;5042171;28;844;-66
2022/04/20 04:21:37;;;;;;;;;;;;;;;;;;5042155;28;1211;-66
2022/04/20 04:24:03;;;;;;;;;;;;;;;;;;5048092;28;1355;-67
2022/04/20 04:26:30;;;;;;;;;;;;;;;;;;5061507;28;1284;-66
2022/04/20 04:28:55;;;;;;;;;;;;;;;;;;5062213;28;867;-66
2022/04/20 04:31:20;;;;;;;;;;;;;;;;;;5061884;28;1965;-65
2022/04/20 04:33:45;;;;;;;;;;;;;;;;;;5059710;28;1357;-66
2022/04/20 04:36:11;;;;;;;;;;;;;;;;;;5054185;28;1370;-66
2022/04/20 04:38:36;;;;;;;;;;;;;;;;;;5060657;28;1124;-66
2022/04/20 04:41:01;;;;;;;;;;;;;;;;;;5055327;28;1376;-67
2022/04/20 04:43:26;;;;;;;;;;;;;;;;;;5058934;28;1271;-67
2022/04/20 04:48:39;;;;;;;;;;;;;;;;;;5059026;28;1391;-67
2022/04/20 04:51:05;;;;;;;;;;;;;;;;;;5054652;28;1922;-67
2022/04/20 04:53:30;;;;;;;;;;;;;;;;;;5053037;28;1326;-67
2022/04/20 04:55:55;;;;;;;;;;;;;;;;;;5061416;28;887;-67
2022/04/20 04:58:21;;;;;;;;;;;;;;;;;;5061274;28;962;-66
2022/04/20 05:00:46;;;;;;;;;;;;;;;;;;5061628;28;939;-66
2022/04/20 05:03:14;;;;;;;;;;;;;;;;;;5060484;28;1332;-66
2022/04/20 05:05:41;;;;;;;;;;;;;;;;;;5053663;28;1135;-66
2022/04/20 05:08:06;;;;;;;;;;;;;;;;;;5061380;28;1576;-66
2022/04/20 05:10:31;;;;;;;;;;;;;;;;;;5061231;28;1889;-66
2022/04/20 05:12:57;;;;;;;;;;;;;;;;;;5061350;28;1136;-67
2022/04/20 05:15:22;;;;;;;;;;;;;;;;;;5061226;28;851;-67
2022/04/20 05:17:48;;;;;;;;;;;;;;;;;;5059501;28;1624;-66
2022/04/20 05:20:13;;;;;;;;;;;;;;;;;;5053007;28;1135;-67
2022/04/20 05:22:38;;;;;;;;;;;;;;;;;;5061112;28;1311;-67
2022/04/20 05:25:04;;;;;;;;;;;;;;;;;;5061078;28;1406;-67
2022/04/20 05:27:29;;;;;;;;;;;;;;;;;;5059378;28;1394;-66
2022/04/20 05:29:54;;;;;;;;;;;;;;;;;;5056067;28;1411;-66
2022/04/20 05:32:19;;;;;;;;;;;;;;;;;;5047999;28;1898;-66
2022/04/20 05:34:45;;;;;;;;;;;;;;;;;;5051110;28;1230;-65
2022/04/20 05:42:46;;;;;;;;;;;;;;;;;;5044437;28;1409;-66
2022/04/20 05:45:11;;;;;;;;;;;;;;;;;;5050491;28;1235;-67
2022/04/20 05:47:38;;;;;;;;;;;;;;;;;;5054108;28;1310;-66
2022/04/20 05:50:03;;;;;;;;;;;;;;;;;;5049878;28;1898;-66
2022/04/20 05:52:28;;;;;;;;;;;;;;;;;;5052773;28;1351;-66
2022/04/20 05:54:54;;;;;;;;;;;;;;;;;;5051007;28;1282;-67
2022/04/20 05:57:19;;;;;;;;;;;;;;;;;;5049343;28;1246;-68
2022/04/20 05:59:44;;;;;;;;;;;;;;;;;;5066154;28;1573;-66
2022/04/20 06:02:09;;;;;;;;;;;;;;;;;;5050254;28;1361;-66
2022/04/20 06:04:34;;;;;;;;;;;;;;;;;;5049509;28;1271;-66
2022/04/20 06:06:59;;;;;;;;;;;;;;;;;;5053105;28;1426;-65
2022/04/20 06:09:25;;;;;;;;;;;;;;;;;;5067932;28;1473;-67
2022/04/20 06:11:52;;;;;;;;;;;;;;;;;;5055958;28;1898;-66
2022/04/20 06:14:17;;;;;;;;;;;;;;;;;;5053826;28;1240;-67
2022/04/20 06:16:43;;;;;;;;;;;;;;;;;;5059495;28;1335;-69
2022/04/20 06:19:08;;;;;;;;;;;;;;;;;;5053936;28;1283;-70
2022/04/20 06:21:33;;;;;;;;;;;;;;;;;;5058317;28;1371;-67
2022/04/20 06:24:00;;;;;;;;;;;;;;;;;;5057012;28;1520;-70
2022/04/20 06:26:25;;;;;;;;;;;;;;;;;;5056204;28;1315;-70
2022/04/20 06:28:50;;;;;;;;;;;;;;;;;;5055589;28;1350;-70
2022/04/20 06:31:16;;;;;;;;;;;;;;;;;;5053782;28;1894;-71
2022/04/20 06:33:41;;;;;;;;;;;;;;;;;;5053021;28;1354;-71
2022/04/20 06:36:06;;;;;;;;;;;;;;;;;;5053763;28;1243;-72
2022/04/20 06:38:31;;;;;;;;;;;;;;;;;;5054023;28;1282;-72
2022/04/20 06:40:58;;;;;;;;;;;;;;;;;;5053897;28;1386;-72
2022/04/20 06:43:23;;;;;;;;;;;;;;;;;;5054494;28;1431;-72
2022/04/20 06:45:48;;;;;;;;;;;;;;;;;;5055520;28;1223;-72
2022/04/20 06:48:13;;;;;;;;;;;;;;;;;;5052620;28;1278;-72
2022/04/20 06:50:42;;;;;;;;;;;;;;;;;;5053969;28;1898;-72
2022/04/20 06:58:50;;;;;;;;;;;;;;;;;;5054459;28;1387;-72
2022/04/20 07:01:16;;;;;;;;;;;;;;;;;;5069661;28;1321;-72
2022/04/20 07:03:41;;;;;;;;;;;;;;;;;;5054244;28;1455;-73
2022/04/20 07:06:06;;;;;;;;;;;;;;;;;;5052773;28;1214;-73
2022/04/20 07:08:32;;;;;;;;;;;;;;;;;;5052346;28;1375;-73
2022/04/20 07:10:58;;;;;;;;;;;;;;;;;;5057464;28;1898;-73
2022/04/20 07:13:23;;;;;;;;;;;;;;;;;;5055603;28;1350;-73
2022/04/20 07:15:49;;;;;;;;;;;;;;;;;;5052501;28;1374;-72
2022/04/20 07:18:14;;;;;;;;;;;;;;;;;;5051473;28;1160;-72
2022/04/20 07:20:39;;;;;;;;;;;;;;;;;;5041988;28;1120;-72
2022/04/20 07:23:05;;;;;;;;;;;;;;;;;;5042025;28;1216;-72
2022/04/20 07:25:30;;;;;;;;;;;;;;;;;;5047517;28;1438;-72
2022/04/20 07:27:55;;;;;;;;;;;;;;;;;;5055959;28;1419;-72
2022/04/20 07:30:21;;;;;;;;;;;;;;;;;;5053085;28;1975;-73
2022/04/20 07:32:48;;;;;;;;;;;;;;;;;;5055633;28;1346;-71
2022/04/20 07:35:13;;;;;;;;;;;;;;;;;;5051313;28;1378;-72
2022/04/20 07:37:39;;;;;;;;;;;;;;;;;;5055586;28;1085;-71
2022/04/20 07:40:04;;;;;;;;;;;;;;;;;;5050436;28;1231;-71
2022/04/20 07:42:29;;;;;;;;;;;;;;;;;;5051875;28;1334;-71
2022/04/20 07:44:56;;;;;;;;;;;;;;;;;;5051310;28;1212;-71
2022/04/20 07:47:24;;;;;;;;;;;;;;;;;;5050310;28;1211;-71
2022/04/20 07:52:37;;;;;;;;;;;;;;;;;;5053002;28;1387;-71
2022/04/20 07:55:06;;;;;;;;;;;;;;;;;;5051235;28;1410;-71
2022/04/20 07:57:31;;;;;;;;;;;;;;;;;;5053638;28;1469;-71
2022/04/20 07:59:56;;;;;;;;;;;;;;;;;;5055445;28;1466;-71
2022/04/20 08:02:22;;;;;;;;;;;;;;;;;;5067615;28;1267;-70
2022/04/20 08:04:47;;;;;;;;;;;;;;;;;;5049995;28;1349;-71
2022/04/20 08:07:12;;;;;;;;;;;;;;;;;;5053101;28;1477;-71
2022/04/20 08:09:37;;;;;;;;;;;;;;;;;;5051907;28;1199;-71
2022/04/20 08:12:02;;;;;;;;;;;;;;;;;;5054242;28;1902;-70
2022/04/20 08:14:28;;;;;;;;;;;;;;;;;;5049026;28;127485;-70
2022/04/20 08:16:53;;;;;;;;;;;;;;;;;;5050573;28;1231;-70
2022/04/20 08:19:18;;;;;;;;;;;;;;;;;;5055879;28;1378;-71
2022/04/20 08:21:44;;;;;;;;;;;;;;;;;;5054617;28;1342;-71
2022/04/20 08:24:09;;;;;;;;;;;;;;;;;;5053457;28;1235;-70
2022/04/20 08:26:34;;;;;;;;;;;;;;;;;;5051943;28;1207;-70
2022/04/20 08:28:59;;;;;;;;;;;;;;;;;;5052357;28;1220;-70
2022/04/20 08:31:24;;;;;;;;;;;;;;;;;;5053939;28;1914;-70
2022/04/20 08:33:50;;;;;;;;;;;;;;;;;;5050635;28;1318;-70
2022/04/20 08:36:16;;;;;;;;;;;;;;;;;;5052690;28;1343;-70
2022/04/20 08:38:42;;;;;;;;;;;;;;;;;;5053280;28;962;-71
2022/04/20 08:41:09;;;;;;;;;;;;;;;;;;5047441;28;1234;-77
2022/04/20 08:43:34;;;;;;;;;;;;;;;;;;5042480;28;1306;-73
2022/04/20 08:46:00;;;;;;;;;;;;;;;;;;5049125;28;1372;-73
2022/04/20 08:48:25;;;;;;;;;;;;;;;;;;5062820;28;832;-72
2022/04/20 08:50:54;;;;;;;;;;;;;;;;;;5055680;28;1960;-72
2022/04/20 08:53:20;;;;;;;;;;;;;;;;;;5059105;28;1269;-72
2022/04/20 08:55:45;;;;;;;;;;;;;;;;;;5058963;28;1209;-73
2022/04/20 08:58:11;;;;;;;;;;;;;;;;;;5042368;28;962;-73
2022/04/20 09:00:36;;;;;;;;;;;;;;;;;;5057249;28;1391;-72
2022/04/20 09:03:03;;;;;;;;;;;;;;;;;;5055949;28;1274;-71
2022/04/20 09:05:29;;;;;;;;;;;;;;;;;;5058974;28;1135;-70
2022/04/20 09:07:54;;;;;;;;;;;;;;;;;;5052754;28;1343;-69
2022/04/20 09:10:20;;;;;;;;;;;;;;;;;;5052803;28;1898;-67
2022/04/20 09:12:46;;;;;;;;;;;;;;;;;;5054109;28;1341;-68
2022/04/20 09:15:14;;;;;;;;;;;;;;;;;;5050792;28;1386;-67
2022/04/20 09:17:45;;;;;;;;;;;;;;;;;;5052831;28;1136;-68
2022/04/20 09:20:19;;;;;;;;;;;;;;;;;;5057162;28;1398;-68
2022/04/20 09:23:04;;;;;;;;;;;;;;;;;;5050526;28;1426;-69
2022/04/20 09:25:30;;;;;;;;;;;;;;;;;;5049396;28;1018;-70
2022/04/20 09:27:56;;;;;;;;;;;;;;;;;;5041304;28;874;-69
2022/04/20 09:30:21;;;;;;;;;;;;;;;;;;5041233;28;1965;-68
2022/04/20 09:32:47;;;;;;;;;;;;;;;;;;5040946;28;1161;-69
2022/04/20 09:35:13;;;;;;;;;;;;;;;;;;5054737;28;1481;-69
2022/04/20 09:37:39;;;;;;;;;;;;;;;;;;5052701;28;1196;-68
2022/04/20 09:40:05;;;;;;;;;;;;;;;;;;5061107;28;827;-68
2022/04/20 09:42:31;;;;;;;;;;;;;;;;;;5060620;28;1275;-68
2022/04/20 09:45:04;;;;;;;;;;;;;;;;;;5050405;28;1683;-68
2022/04/20 09:50:20;;;;;;;;;;;;;;;;;;5060262;28;1953;-68
2022/04/20 09:52:48;;;;;;;;;;;;;;;;;;5060684;28;1263;-67
2022/04/20 09:55:15;;;;;;;;;;;;;;;;;;5061158;28;882;-68
2022/04/20 09:57:40;;;;;;;;;;;;;;;;;;5059872;28;1367;-67
2022/04/20 10:00:13;;;;;;;;;;;;;;;;;;5051610;28;1332;-67
2022/04/20 10:02:48;;;;;;;;;;;;;;;;;;5052196;28;1235;-67
2022/04/20 10:05:14;;;;;;;;;;;;;;;;;;5061083;28;890;-67
2022/04/20 10:07:39;;;;;;;;;;;;;;;;;;5058211;28;1076;-67
2022/04/20 10:10:05;;;;;;;;;;;;;;;;;;5048271;28;1426;-67
2022/04/20 10:12:31;;;;;;;;;;;;;;;;;;5051531;28;1893;-67
2022/04/20 10:17:44;;;;;;;;;;;;;;;;;;5060774;28;711;-67
2022/04/20 10:20:09;;;;;;;;;;;;;;;;;;5059643;28;1300;-67
2022/04/20 10:22:36;;;;;;;;;;;;;;;;;;5057330;28;1441;-67
2022/04/20 10:25:04;;;;;;;;;;;;;;;;;;5053873;28;1497;-66
2022/04/20 10:27:45;;;;;;;;;;;;;;;;;;5052163;28;1230;-67
2022/04/20 10:30:12;;;;;;;;;;;;;;;;;;5060229;28;1048;-68
2022/04/20 10:32:45;;;;;;;;;;;;;;;;;;5060154;28;1176;-68
2022/04/20 10:35:10;;;;;;;;;;;;;;;;;;5059623;28;1433;-67
2022/04/20 10:37:35;;;;;;;;;;;;;;;;;;5051966;28;1140;-67
2022/04/20 10:40:17;;;;;;;;;;;;;;;;;;5060055;28;1359;-68
2022/04/20 10:42:44;;;;;;;;;;;;;;;;;;5060144;28;1374;-67
2022/04/20 10:45:10;;;;;;;;;;;;;;;;;;5060188;28;942;-67
2022/04/20 10:47:38;;;;;;;;;;;;;;;;;;5060459;28;887;-69
2022/04/20 10:50:30;;;;;;;;;;;;;;;;;;5059302;28;1362;-68
2022/04/20 10:52:58;;;;;;;;;;;;;;;;;;5048764;28;1500;-68
2022/04/20 10:55:44;;;;;;;;;;;;;;;;;;5061874;28;753;-69
2022/04/20 10:58:20;;;;;;;;;;;;;;;;;;5058414;28;1251;-69
2022/04/20 11:00:45;;;;;;;;;;;;;;;;;;5063603;28;847;-69
2022/04/20 11:03:12;;;;;;;;;;;;;;;;;;5063465;28;1191;-69
2022/04/20 11:05:49;;;;;;;;;;;;;;;;;;5062413;28;1353;-68
2022/04/20 11:08:15;;;;;;;;;;;;;;;;;;5063104;28;1410;-67
2022/04/20 11:10:41;;;;;;;;;;;;;;;;;;5061523;28;1901;-67
2022/04/20 11:19:08;;;;;;;;;;;;;;;;;;5057464;28;1375;-71
2022/04/20 11:21:33;;;;;;;;;;;;;;;;;;5053557;28;1389;-70
2022/04/20 11:24:08;;;;;;;;;;;;;;;;;;5051254;28;1279;-67
2022/04/20 11:26:39;;;;;;;;;;;;;;;;;;5055493;28;1384;-68
2022/04/20 11:29:09;;;;;;;;;;;;;;;;;;5052357;28;1121;-69
2022/04/20 11:31:38;;;;;;;;;;;;;;;;;;5052238;28;1905;-67
2022/04/20 11:34:04;;;;;;;;;;;;;;;;;;5054177;28;1196;-67
2022/04/20 11:36:29;;;;;;;;;;;;;;;;;;5054103;28;1235;-67
2022/04/20 11:38:54;;;;;;;;;;;;;;;;;;5054008;28;1437;-70
2022/04/20 11:41:20;;;;;;;;;;;;;;;;;;5049499;28;1281;-71
2022/04/20 11:43:49;;;;;;;;;;;;;;;;;;5053034;28;1277;-67
2022/04/20 11:46:15;;;;;;;;;;;;;;;;;;5052988;28;1231;-67
2022/04/20 11:48:56;;;;;;;;;;;;;;;;;;5051307;28;1243;-67
2022/04/20 11:51:23;;;;;;;;;;;;;;;;;;5053302;28;1898;-67
2022/04/20 11:53:48;;;;;;;;;;;;;;;;;;5051339;28;1362;-67
2022/04/20 11:56:14;;;;;;;;;;;;;;;;;;5049555;28;1286;-67
2022/04/20 11:58:40;;;;;;;;;;;;;;;;;;5054672;28;1366;-69
2022/04/20 12:01:06;;;;;;;;;;;;;;;;;;5058735;28;1473;-67
2022/04/20 12:03:32;;;;;;;;;;;;;;;;;;5042375;28;1295;-67
2022/04/20 12:06:01;;;;;;;;;;;;;;;;;;5053191;28;1397;-68
2022/04/20 12:08:26;;;;;;;;;;;;;;;;;;5059367;28;1186;-68
2022/04/20 12:10:52;;;;;;;;;;;;;;;;;;5062300;28;1952;-68
2022/04/20 12:13:24;;;;;;;;;;;;;;;;;;5053265;28;1374;-67
2022/04/20 12:15:58;;;;;;;;;;;;;;;;;;5042278;28;958;-69
2022/04/20 12:18:23;;;;;;;;;;;;;;;;;;5042406;28;935;-67
2022/04/20 12:20:49;;;;;;;;;;;;;;;;;;5054262;28;1425;-71
2022/04/20 12:23:16;;;;;;;;;;;;;;;;;;5059936;28;1410;-71
2022/04/20 12:25:41;;;;;;;;;;;;;;;;;;5055096;28;1406;-71
2022/04/20 12:28:35;;;;;;;;;;;;;;;;;;5056684;28;1234;-70
2022/04/20 12:30:59;;;;;;;;;;;;;;;;;;5041891;28;1967;-70
2022/04/20 12:33:24;;;;;;;;;;;;;;;;;;5042342;28;1203;-73
2022/04/20 12:36:03;;;;;;;;;;;;;;;;;;5042087;28;823;-70
2022/04/20 12:38:28;;;;;;;;;;;;;;;;;;5042739;28;1351;-69
2022/04/20 12:40:54;;;;;;;;;;;;;;;;;;5058369;28;1402;-70
2022/04/20 12:43:19;;;;;;;;;;;;;;;;;;5053381;28;1266;-69
2022/04/20 12:45:44;;;;;;;;;;;;;;;;;;5061648;28;1299;-68
2022/04/20 12:48:12;;;;;;;;;;;;;;;;;;5061891;28;998;-68
2022/04/20 12:50:38;;;;;;;;;;;;;;;;;;5061674;28;1894;-68
2022/04/20 12:53:04;;;;;;;;;;;;;;;;;;5058914;28;1402;-70
2022/04/20 12:55:33;;;;;;;;;;;;;;;;;;5057877;28;1564;-71
2022/04/20 13:03:31;;;;;;;;;;;;;;;;;;5049091;28;1303;-68
2022/04/20 13:05:56;;;;;;;;;;;;;;;;;;5060275;28;1595;-68
2022/04/20 13:08:21;;;;;;;;;;;;;;;;;;5059601;28;1372;-68
2022/04/20 13:10:49;;;;;;;;;;;;;;;;;;5055005;28;3008;-68
2022/04/20 13:13:14;;;;;;;;;;;;;;;;;;5057080;28;1398;-68
2022/04/20 13:15:40;;;;;;;;;;;;;;;;;;5057978;28;1383;-68
2022/04/20 13:18:05;;;;;;;;;;;;;;;;;;5052714;28;1123;-68
2022/04/20 13:20:31;;;;;;;;;;;;;;;;;;5060036;28;911;-68
2022/04/20 13:22:56;;;;;;;;;;;;;;;;;;5060359;28;1378;-68
2022/04/20 13:28:06;;;;;;;;;;;;;;;;;;5060586;28;1355;-68
2022/04/20 13:30:35;;;;;;;;;;;;;;;;;;5052733;28;1898;-68
2022/04/20 13:33:01;;;;;;;;;;;;;;;;;;5054600;28;1386;-68
2022/04/20 13:35:26;;;;;;;;;;;;;;;;;;5058418;28;1112;-70
2022/04/20 13:37:52;;;;;;;;;;;;;;;;;;5060253;28;1374;-70
2022/04/20 13:40:17;;;;;;;;;;;;;;;;;;5051899;28;1172;-67
2022/04/20 13:42:42;;;;;;;;;;;;;;;;;;5058995;28;1355;-68
2022/04/20 13:45:08;;;;;;;;;;;;;;;;;;5054528;28;1017;-68
2022/04/20 13:47:33;;;;;;;;;;;;;;;;;;5059249;28;1132;-68
2022/04/20 13:50:00;;;;;;;;;;;;;;;;;;5060757;28;1068;-69
2022/04/20 13:52:25;;;;;;;;;;;;;;;;;;5059708;28;1906;-69
2022/04/20 13:54:50;;;;;;;;;;;;;;;;;;5052663;28;1176;-69
2022/04/20 13:57:15;;;;;;;;;;;;;;;;;;5061009;28;812;-70
2022/04/20 13:59:41;;;;;;;;;;;;;;;;;;5059306;28;1191;-70
2022/04/20 14:02:06;;;;;;;;;;;;;;;;;;5060344;28;1228;-69
2022/04/20 14:04:31;;;;;;;;;;;;;;;;;;5060825;28;954;-69
2022/04/20 14:06:57;;;;;;;;;;;;;;;;;;5059897;28;1410;-69
2022/04/20 14:09:22;;;;;;;;;;;;;;;;;;5052446;28;1096;-69
2022/04/20 14:11:47;;;;;;;;;;;;;;;;;;5058077;28;1910;-68
2022/04/20 14:14:12;;;;;;;;;;;;;;;;;;5053416;28;889;-68
2022/04/20 14:16:41;;;;;;;;;;;;;;;;;;5059402;28;1164;-68
2022/04/20 14:19:07;;;;;;;;;;;;;;;;;;5060524;28;907;-68
2022/04/20 14:21:32;;;;;;;;;;;;;;;;;;5058105;28;1352;-69
2022/04/20 14:23:57;;;;;;;;;;;;;;;;;;5053922;28;1399;-69
2022/04/20 14:34:35;;;;;;;;;;;;;;;;;;5061683;28;1394;-69
2022/04/20 14:37:00;;;;;;;;;;;;;;;;;;5060034;28;1406;-69
2022/04/20 14:39:25;;;;;;;;;;;;;;;;;;5055501;28;1155;-69
2022/04/20 14:41:51;;;;;;;;;;;;;;;;;;5063602;28;1200;-68
2022/04/20 14:44:16;;;;;;;;;;;;;;;;;;5062468;28;1347;-68
2022/04/20 14:46:41;;;;;;;;;;;;;;;;;;5059444;28;1441;-69
2022/04/20 14:49:06;;;;;;;;;;;;;;;;;;5056419;28;1339;-69
2022/04/20 14:51:31;;;;;;;;;;;;;;;;;;5045639;28;1890;-70
2022/04/20 14:53:57;;;;;;;;;;;;;;;;;;5060464;28;1402;-68
2022/04/20 14:56:22;;;;;;;;;;;;;;;;;;5055413;28;1226;-69
2022/04/20 14:58:48;;;;;;;;;;;;;;;;;;5063599;28;883;-67
2022/04/20 15:01:13;;;;;;;;;;;;;;;;;;5061797;28;1386;-69
2022/04/20 15:03:39;;;;;;;;;;;;;;;;;;5054821;28;1314;-70
2022/04/20 15:06:04;;;;;;;;;;;;;;;;;;5051774;28;1379;-67
2022/04/20 15:08:29;;;;;;;;;;;;;;;;;;5055246;28;1258;-67
2022/04/20 15:10:57;;;;;;;;;;;;;;;;;;5062217;28;1914;-68
2022/04/20 15:13:23;;;;;;;;;;;;;;;;;;5051389;28;1243;-69
2022/04/20 15:15:48;;;;;;;;;;;;;;;;;;5056047;28;1335;-69
2022/04/20 15:18:13;;;;;;;;;;;;;;;;;;5062479;28;1415;-69
2022/04/20 15:20:38;;;;;;;;;;;;;;;;;;5054953;28;1147;-67
2022/04/20 15:23:06;;;;;;;;;;;;;;;;;;5063160;28;1208;-68
2022/04/20 15:25:33;;;;;;;;;;;;;;;;;;5062263;28;1354;-70
2022/04/20 15:27:59;;;;;;;;;;;;;;;;;;5060210;28;1398;-70
2022/04/20 15:30:32;;;;;;;;;;;;;;;;;;5059024;28;1930;-70
2022/04/20 15:32:57;;;;;;;;;;;;;;;;;;5057260;28;1279;-70
2022/04/20 15:35:22;;;;;;;;;;;;;;;;;;5059942;28;1207;-69
2022/04/20 15:37:50;;;;;;;;;;;;;;;;;;5063087;28;803;-69
2022/04/20 15:40:16;;;;;;;;;;;;;;;;;;5062158;28;1393;-69
2022/04/20 15:42:42;;;;;;;;;;;;;;;;;;5053908;28;1367;-68
2022/04/20 15:45:08;;;;;;;;;;;;;;;;;;5060720;28;1382;-68
2022/04/20 15:47:34;;;;;;;;;;;;;;;;;;5059950;28;1354;-68
2022/04/20 15:50:00;;;;;;;;;;;;;;;;;;5056277;28;1061;-68
2022/04/20 15:52:26;;;;;;;;;;;;;;;;;;5061112;28;1956;-69
2022/04/20 16:00:14;;;;;;;;;;;;;;;;;;5062098;28;1465;-71
2022/04/20 16:00:22;;;;;;;;;;;;;;;;;;5059417;28;1601;-72
2022/04/20 16:02:49;;;;;;;;;;;;;;;;;;5062531;28;1196;-70
2022/04/20 16:05:14;;;;;;;;;;;;;;;;;;5060170;28;1487;-71
2022/04/20 16:07:39;;;;;;;;;;;;;;;;;;5057226;28;1391;-70
2022/04/20 16:10:05;;;;;;;;;;;;;;;;;;5056477;28;1331;-70
2022/04/20 16:12:30;;;;;;;;;;;;;;;;;;5056085;28;2224;-70
2022/04/20 16:14:56;;;;;;;;;;;;;;;;;;5058273;28;1558;-71
2022/04/20 16:17:24;;;;;;;;;;;;;;;;;;5058427;28;1454;-72
2022/04/20 16:19:49;;;;;;;;;;;;;;;;;;5061201;28;1738;-71
2022/04/20 16:22:14;;;;;;;;;;;;;;;;;;5059767;28;1635;-70
2022/04/20 16:24:40;;;;;;;;;;;;;;;;;;5061966;28;1144;-71
2022/04/20 16:27:05;;;;;;;;;;;;;;;;;;5061813;28;1310;-70
2022/04/20 16:29:30;;;;;;;;;;;;;;;;;;5062491;28;839;-71
2022/04/20 16:31:55;;;;;;;;;;;;;;;;;;5060731;28;1905;-70
2022/04/20 16:34:21;;;;;;;;;;;;;;;;;;5061683;28;1534;-71
2022/04/20 16:36:48;;;;;;;;;;;;;;;;;;5062113;28;1560;-72
2022/04/20 16:39:13;;;;;;;;;;;;;;;;;;5062157;28;863;-71
2022/04/20 16:41:38;;;;;;;;;;;;;;;;;;5061877;28;1217;-72
2022/04/20 16:44:03;;;;;;;;;;;;;;;;;;5061398;28;1550;-71
2022/04/20 16:46:29;;;;;;;;;;;;;;;;;;5059654;28;1221;-70
2022/04/20 16:48:54;;;;;;;;;;;;;;;;;;5061122;28;1356;-69
2022/04/20 16:51:19;;;;;;;;;;;;;;;;;;5061298;28;1957;-71
2022/04/20 16:53:44;;;;;;;;;;;;;;;;;;5060483;28;1447;-70
2022/04/20 16:56:10;;;;;;;;;;;;;;;;;;5061084;28;1654;-72
2022/04/20 16:58:35;;;;;;;;;;;;;;;;;;5053347;28;1655;-70
2022/04/20 17:01:00;;;;;;;;;;;;;;;;;;5057396;28;1179;-71
2022/04/20 17:03:25;;;;;;;;;;;;;;;;;;5061378;28;1297;-70
2022/04/20 17:05:50;;;;;;;;;;;;;;;;;;5060676;28;783;-70
2022/04/20 17:08:16;;;;;;;;;;;;;;;;;;5061398;28;1475;-70
2022/04/20 17:10:41;;;;;;;;;;;;;;;;;;5060900;28;1898;-70
2022/04/20 17:13:06;;;;;;;;;;;;;;;;;;5061145;28;1184;-72
2022/04/20 17:15:31;;;;;;;;;;;;;;;;;;5060853;28;1447;-70
2022/04/20 17:17:56;;;;;;;;;;;;;;;;;;5059567;28;1651;-71
2022/04/20 17:28:33;;;;;;;;;;;;;;;;;;5059688;28;970;-72
2022/04/20 17:30:59;;;;;;;;;;;;;;;;;;5060133;28;1906;-75
2022/04/20 17:33:24;;;;;;;;;;;;;;;;;;5042902;28;1414;-70
2022/04/20 17:38:33;;;;;;;;;;;;;;;;;;5061550;28;666;-71
2022/04/20 17:40:58;;;;;;;;;;;;;;;;;;5077719;28;1494;-71
2022/04/20 17:43:24;;;;;;;;;;;;;;;;;;5061722;28;1191;-70
2022/04/20 17:45:49;;;;;;;;;;;;;;;;;;5061712;28;1510;-71
2022/04/20 17:48:14;;;;;;;;;;;;;;;;;;5053385;28;1447;-72
2022/04/20 17:50:40;;;;;;;;;;;;;;;;;;5058889;28;1906;-72
2022/04/20 17:53:06;;;;;;;;;;;;;;;;;;5055660;28;1576;-71
2022/04/20 17:55:32;;;;;;;;;;;;;;;;;;5060582;28;1587;-71
2022/04/20 17:57:57;;;;;;;;;;;;;;;;;;5059915;28;1502;-70
2022/04/20 18:00:22;;;;;;;;;;;;;;;;;;5059424;28;1217;-70